Impacts TAF Board
For situational awareness. Not to be used for flight planning purposes.
IDs:

KEGE - Eagle Cnty Rgnl, CO, US

Issued at 1727 UTC 01 Feb 2023
Updated at 2237 UTC 01 Feb 2023
Potential Impact None Slight Moderate High
Time2156Z 01/23Z 02/00Z 02/01Z 02/02Z 02/03Z 02/04Z 02/05Z 02/06Z 02/07Z 02/08Z 02/09Z 02/10Z 02/11Z>>
Type OBS PRVL PRVL PRVL PRVL PRVL PRVL PRVL PRVL PRVL PRVL PRVL PRVL PRVL
VIS 10 >6 >6 >6 >6 >6 >6 >6 >6 >6 >6 >6 >6 >6
CIG -- -- -- -- -- -- -- -- -- -- -- -- -- --
Cover CLR SKC FEW FEW FEW FEW FEW FEW FEW FEW FEW FEW FEW FEW
FltCat VFR VFR VFR VFR VFR VFR VFR VFR VFR VFR VFR VFR VFR VFR
WX -- -- -- -- -- -- -- -- -- -- -- -- -- --
WDir VRB VRB 100 100 100 100 100 100 100 100 100 100 100 100
WSpd 0 3 5 5 5 5 5 5 5 5 5 5 5 5
WGst -- -- -- -- -- -- -- -- -- -- -- -- -- --
WSHgt -- -- -- -- -- -- -- -- -- -- -- -- -- --
WSDir -- -- -- -- -- -- -- -- -- -- -- -- -- --
WSSpd -- -- -- -- -- -- -- -- -- -- -- -- -- --
R07/25
XWnd VRB VRB -2 -2 -2 -2 -2 -2 -2 -2 -2 -2 -2 -2
HWnd VRB VRB 5 5 5 5 5 5 5 5 5 5 5 5

NOTE: LAMP data beyond the time of the TAF data is denoted as LAMP in Type and colored magenta.

Raw TAF
KEGE 011727Z 0118/0218 VRB03KT P6SM SKC
  FM020000 10005KT P6SM FEW080


Raw METAR
KEGE 012156Z 00000KT 10SM CLR M05/M14 A3025 RMK AO2 SLP149 T10501139
KEGE 012056Z 27003KT 10SM CLR M06/M14 A3026 RMK AO2 SLP151 T10611144 56031
KEGE 011956Z 00000KT 10SM CLR M08/M16 A3028 RMK AO2 SLP157 T10831161

METAR Board
Radar Display
Forecast Discussion

For situational awareness. Not to be used for flight planning purposes.